sensor_id;sensor_type;location;lat;lon;timestamp;P1;durP1;ratioP1;P2;durP2;ratioP2
33184;SDS011;19550;42.872;25.494;2022-08-21T00:00:02;22.05;;;15.13;;
33184;SDS011;19550;42.872;25.494;2022-08-21T00:02:32;24.42;;;16.15;;
33184;SDS011;19550;42.872;25.494;2022-08-21T00:04:59;28.73;;;15.88;;
33184;SDS011;19550;42.872;25.494;2022-08-21T00:07:26;23.20;;;16.00;;
33184;SDS011;19550;42.872;25.494;2022-08-21T00:09:53;33.88;;;16.95;;
33184;SDS011;19550;42.872;25.494;2022-08-21T00:12:20;24.77;;;16.65;;
33184;SDS011;19550;42.872;25.494;2022-08-21T00:14:48;25.23;;;16.50;;
33184;SDS011;19550;42.872;25.494;2022-08-21T00:17:16;22.35;;;16.58;;
33184;SDS011;19550;42.872;25.494;2022-08-21T00:19:43;22.00;;;15.88;;
33184;SDS011;19550;42.872;25.494;2022-08-21T00:22:11;26.10;;;17.10;;
33184;SDS011;19550;42.872;25.494;2022-08-21T00:24:38;22.05;;;16.13;;
33184;SDS011;19550;42.872;25.494;2022-08-21T00:27:05;20.90;;;16.05;;
33184;SDS011;19550;42.872;25.494;2022-08-21T00:29:32;25.35;;;15.95;;
33184;SDS011;19550;42.872;25.494;2022-08-21T00:32:01;21.23;;;14.38;;
33184;SDS011;19550;42.872;25.494;2022-08-21T00:34:30;17.83;;;14.00;;
33184;SDS011;19550;42.872;25.494;2022-08-21T00:36:57;19.10;;;14.07;;
33184;SDS011;19550;42.872;25.494;2022-08-21T00:39:24;20.20;;;14.50;;
33184;SDS011;19550;42.872;25.494;2022-08-21T00:41:51;18.98;;;14.60;;
33184;SDS011;19550;42.872;25.494;2022-08-21T00:44:18;18.35;;;15.57;;
33184;SDS011;19550;42.872;25.494;2022-08-21T00:46:45;17.88;;;13.68;;
33184;SDS011;19550;42.872;25.494;2022-08-21T00:49:12;19.20;;;13.70;;
33184;SDS011;19550;42.872;25.494;2022-08-21T00:51:42;19.13;;;14.63;;
33184;SDS011;19550;42.872;25.494;2022-08-21T00:54:13;20.60;;;14.02;;
33184;SDS011;19550;42.872;25.494;2022-08-21T00:56:41;15.40;;;13.02;;
33184;SDS011;19550;42.872;25.494;2022-08-21T00:59:09;20.73;;;13.13;;
33184;SDS011;19550;42.872;25.494;2022-08-21T01:01:36;16.85;;;13.50;;
33184;SDS011;19550;42.872;25.494;2022-08-21T01:04:03;18.13;;;14.73;;
33184;SDS011;19550;42.872;25.494;2022-08-21T01:06:30;19.58;;;12.93;;
33184;SDS011;19550;42.872;25.494;2022-08-21T01:08:59;16.73;;;13.32;;
33184;SDS011;19550;42.872;25.494;2022-08-21T01:11:26;18.70;;;14.35;;
33184;SDS011;19550;42.872;25.494;2022-08-21T01:13:53;18.48;;;14.02;;
33184;SDS011;19550;42.872;25.494;2022-08-21T01:16:20;16.42;;;13.77;;
33184;SDS011;19550;42.872;25.494;2022-08-21T01:18:49;16.05;;;11.63;;
33184;SDS011;19550;42.872;25.494;2022-08-21T01:21:19;17.58;;;12.88;;
33184;SDS011;19550;42.872;25.494;2022-08-21T01:23:49;18.75;;;13.73;;
33184;SDS011;19550;42.872;25.494;2022-08-21T01:26:20;16.23;;;13.30;;
33184;SDS011;19550;42.872;25.494;2022-08-21T01:28:52;16.58;;;13.30;;
33184;SDS011;19550;42.872;25.494;2022-08-21T01:31:24;17.13;;;14.35;;
33184;SDS011;19550;42.872;25.494;2022-08-21T01:33:52;21.77;;;14.30;;
33184;SDS011;19550;42.872;25.494;2022-08-21T01:36:22;19.33;;;12.93;;
33184;SDS011;19550;42.872;25.494;2022-08-21T01:38:50;17.17;;;14.77;;
33184;SDS011;19550;42.872;25.494;2022-08-21T01:41:18;16.83;;;13.35;;
33184;SDS011;19550;42.872;25.494;2022-08-21T01:43:45;18.35;;;13.80;;
33184;SDS011;19550;42.872;25.494;2022-08-21T01:46:12;19.52;;;13.70;;
33184;SDS011;19550;42.872;25.494;2022-08-21T01:48:40;18.55;;;13.95;;
33184;SDS011;19550;42.872;25.494;2022-08-21T01:51:07;18.80;;;13.45;;
33184;SDS011;19550;42.872;25.494;2022-08-21T01:53:36;21.63;;;13.98;;
33184;SDS011;19550;42.872;25.494;2022-08-21T01:56:04;17.60;;;14.55;;
33184;SDS011;19550;42.872;25.494;2022-08-21T01:58:36;19.58;;;14.60;;
33184;SDS011;19550;42.872;25.494;2022-08-21T02:01:03;25.17;;;14.13;;
33184;SDS011;19550;42.872;25.494;2022-08-21T02:03:31;21.63;;;15.40;;
33184;SDS011;19550;42.872;25.494;2022-08-21T02:05:58;19.67;;;14.88;;
33184;SDS011;19550;42.872;25.494;2022-08-21T02:08:25;21.55;;;14.98;;
33184;SDS011;19550;42.872;25.494;2022-08-21T02:10:55;20.33;;;15.23;;
33184;SDS011;19550;42.872;25.494;2022-08-21T02:13:22;16.70;;;13.80;;
33184;SDS011;19550;42.872;25.494;2022-08-21T02:15:49;18.40;;;13.77;;
33184;SDS011;19550;42.872;25.494;2022-08-21T02:18:16;17.55;;;14.50;;
33184;SDS011;19550;42.872;25.494;2022-08-21T02:20:45;20.05;;;14.82;;
33184;SDS011;19550;42.872;25.494;2022-08-21T02:23:13;22.17;;;15.57;;
33184;SDS011;19550;42.872;25.494;2022-08-21T02:25:40;23.63;;;15.98;;
33184;SDS011;19550;42.872;25.494;2022-08-21T02:28:11;20.05;;;13.90;;
33184;SDS011;19550;42.872;25.494;2022-08-21T02:30:41;21.45;;;14.15;;
33184;SDS011;19550;42.872;25.494;2022-08-21T02:33:10;19.80;;;15.57;;
33184;SDS011;19550;42.872;25.494;2022-08-21T02:35:38;17.73;;;15.07;;
33184;SDS011;19550;42.872;25.494;2022-08-21T02:38:08;22.77;;;14.15;;
33184;SDS011;19550;42.872;25.494;2022-08-21T02:40:37;20.48;;;14.57;;
33184;SDS011;19550;42.872;25.494;2022-08-21T02:43:06;20.33;;;15.00;;
33184;SDS011;19550;42.872;25.494;2022-08-21T02:45:35;21.77;;;14.63;;
33184;SDS011;19550;42.872;25.494;2022-08-21T02:48:04;20.20;;;14.18;;
33184;SDS011;19550;42.872;25.494;2022-08-21T02:50:33;18.52;;;14.25;;
33184;SDS011;19550;42.872;25.494;2022-08-21T02:53:03;16.70;;;13.52;;
33184;SDS011;19550;42.872;25.494;2022-08-21T02:55:32;17.02;;;14.13;;
33184;SDS011;19550;42.872;25.494;2022-08-21T02:58:01;22.50;;;13.93;;
33184;SDS011;19550;42.872;25.494;2022-08-21T03:00:30;21.52;;;13.77;;
33184;SDS011;19550;42.872;25.494;2022-08-21T03:02:59;24.17;;;14.17;;
33184;SDS011;19550;42.872;25.494;2022-08-21T03:05:27;29.07;;;14.20;;
33184;SDS011;19550;42.872;25.494;2022-08-21T03:07:57;28.35;;;14.48;;
33184;SDS011;19550;42.872;25.494;2022-08-21T03:10:25;19.65;;;14.27;;
33184;SDS011;19550;42.872;25.494;2022-08-21T03:12:53;21.83;;;15.10;;
33184;SDS011;19550;42.872;25.494;2022-08-21T03:15:21;23.38;;;16.55;;
33184;SDS011;19550;42.872;25.494;2022-08-21T03:17:50;24.48;;;14.10;;
33184;SDS011;19550;42.872;25.494;2022-08-21T03:20:21;21.13;;;15.38;;
33184;SDS011;19550;42.872;25.494;2022-08-21T03:22:50;21.63;;;14.13;;
33184;SDS011;19550;42.872;25.494;2022-08-21T03:25:18;22.92;;;13.88;;
33184;SDS011;19550;42.872;25.494;2022-08-21T03:27:46;18.40;;;14.50;;
33184;SDS011;19550;42.872;25.494;2022-08-21T03:30:14;18.70;;;14.50;;
33184;SDS011;19550;42.872;25.494;2022-08-21T03:32:42;18.83;;;14.90;;
33184;SDS011;19550;42.872;25.494;2022-08-21T03:35:09;23.25;;;13.45;;
33184;SDS011;19550;42.872;25.494;2022-08-21T03:37:37;18.42;;;12.98;;
33184;SDS011;19550;42.872;25.494;2022-08-21T03:40:05;22.05;;;14.35;;
33184;SDS011;19550;42.872;25.494;2022-08-21T03:42:34;24.75;;;14.20;;
33184;SDS011;19550;42.872;25.494;2022-08-21T03:45:02;18.45;;;14.73;;
33184;SDS011;19550;42.872;25.494;2022-08-21T03:47:30;27.48;;;15.68;;
33184;SDS011;19550;42.872;25.494;2022-08-21T03:49:57;20.45;;;14.60;;
33184;SDS011;19550;42.872;25.494;2022-08-21T03:52:24;18.13;;;13.85;;
33184;SDS011;19550;42.872;25.494;2022-08-21T03:54:53;23.52;;;15.18;;
33184;SDS011;19550;42.872;25.494;2022-08-21T03:57:20;20.38;;;13.65;;
33184;SDS011;19550;42.872;25.494;2022-08-21T03:59:47;16.08;;;13.02;;
33184;SDS011;19550;42.872;25.494;2022-08-21T04:02:15;21.35;;;13.52;;
33184;SDS011;19550;42.872;25.494;2022-08-21T04:04:46;26.85;;;13.93;;
33184;SDS011;19550;42.872;25.494;2022-08-21T04:07:13;24.33;;;14.27;;
33184;SDS011;19550;42.872;25.494;2022-08-21T04:09:40;18.60;;;13.13;;
33184;SDS011;19550;42.872;25.494;2022-08-21T04:12:09;21.63;;;12.02;;
33184;SDS011;19550;42.872;25.494;2022-08-21T04:14:36;22.40;;;13.05;;
33184;SDS011;19550;42.872;25.494;2022-08-21T04:17:03;21.55;;;13.30;;
33184;SDS011;19550;42.872;25.494;2022-08-21T04:19:30;23.27;;;13.30;;
33184;SDS011;19550;42.872;25.494;2022-08-21T04:21:57;23.85;;;14.30;;
33184;SDS011;19550;42.872;25.494;2022-08-21T04:24:24;17.10;;;13.55;;
33184;SDS011;19550;42.872;25.494;2022-08-21T04:26:51;23.35;;;13.98;;
33184;SDS011;19550;42.872;25.494;2022-08-21T04:29:20;22.25;;;14.05;;
33184;SDS011;19550;42.872;25.494;2022-08-21T04:31:47;17.30;;;12.43;;
33184;SDS011;19550;42.872;25.494;2022-08-21T04:34:14;17.40;;;12.40;;
33184;SDS011;19550;42.872;25.494;2022-08-21T04:36:41;17.83;;;12.52;;
33184;SDS011;19550;42.872;25.494;2022-08-21T04:39:08;17.83;;;13.32;;
33184;SDS011;19550;42.872;25.494;2022-08-21T04:41:35;24.17;;;13.95;;
33184;SDS011;19550;42.872;25.494;2022-08-21T04:44:03;21.02;;;13.65;;
33184;SDS011;19550;42.872;25.494;2022-08-21T04:46:33;21.90;;;14.18;;
33184;SDS011;19550;42.872;25.494;2022-08-21T04:49:00;20.33;;;13.07;;
33184;SDS011;19550;42.872;25.494;2022-08-21T04:51:28;23.02;;;12.93;;
33184;SDS011;19550;42.872;25.494;2022-08-21T04:53:59;18.30;;;12.50;;
33184;SDS011;19550;42.872;25.494;2022-08-21T04:56:29;18.45;;;12.80;;
33184;SDS011;19550;42.872;25.494;2022-08-21T04:59:00;14.13;;;11.90;;
33184;SDS011;19550;42.872;25.494;2022-08-21T05:01:32;23.55;;;12.90;;
33184;SDS011;19550;42.872;25.494;2022-08-21T05:04:03;22.63;;;11.93;;
33184;SDS011;19550;42.872;25.494;2022-08-21T05:06:33;15.45;;;12.65;;
33184;SDS011;19550;42.872;25.494;2022-08-21T05:09:03;19.55;;;12.75;;
33184;SDS011;19550;42.872;25.494;2022-08-21T05:11:31;17.90;;;12.88;;
33184;SDS011;19550;42.872;25.494;2022-08-21T05:14:00;23.37;;;13.90;;
33184;SDS011;19550;42.872;25.494;2022-08-21T05:16:27;25.38;;;14.10;;
33184;SDS011;19550;42.872;25.494;2022-08-21T05:18:55;18.60;;;13.00;;
33184;SDS011;19550;42.872;25.494;2022-08-21T05:21:23;25.98;;;13.32;;
33184;SDS011;19550;42.872;25.494;2022-08-21T05:23:50;22.92;;;13.10;;
33184;SDS011;19550;42.872;25.494;2022-08-21T05:26:17;25.63;;;13.88;;
33184;SDS011;19550;42.872;25.494;2022-08-21T05:28:44;20.75;;;12.35;;
33184;SDS011;19550;42.872;25.494;2022-08-21T05:31:11;20.75;;;12.60;;
33184;SDS011;19550;42.872;25.494;2022-08-21T05:33:38;21.52;;;11.38;;
33184;SDS011;19550;42.872;25.494;2022-08-21T05:36:07;28.67;;;12.40;;
33184;SDS011;19550;42.872;25.494;2022-08-21T05:38:34;18.98;;;10.60;;
33184;SDS011;19550;42.872;25.494;2022-08-21T05:41:01;14.23;;;10.85;;
33184;SDS011;19550;42.872;25.494;2022-08-21T05:43:28;23.02;;;11.20;;
33184;SDS011;19550;42.872;25.494;2022-08-21T05:45:58;18.70;;;11.17;;
33184;SDS011;19550;42.872;25.494;2022-08-21T05:48:25;16.85;;;10.85;;
33184;SDS011;19550;42.872;25.494;2022-08-21T05:50:52;23.08;;;11.07;;
33184;SDS011;19550;42.872;25.494;2022-08-21T05:53:21;16.38;;;11.32;;
33184;SDS011;19550;42.872;25.494;2022-08-21T05:55:49;15.68;;;9.98;;
33184;SDS011;19550;42.872;25.494;2022-08-21T05:58:19;17.88;;;11.27;;
33184;SDS011;19550;42.872;25.494;2022-08-21T06:00:48;18.10;;;10.70;;
33184;SDS011;19550;42.872;25.494;2022-08-21T06:03:17;19.00;;;10.63;;
33184;SDS011;19550;42.872;25.494;2022-08-21T06:05:49;18.38;;;10.30;;
33184;SDS011;19550;42.872;25.494;2022-08-21T06:08:18;19.25;;;10.02;;
33184;SDS011;19550;42.872;25.494;2022-08-21T06:10:47;21.45;;;11.48;;
33184;SDS011;19550;42.872;25.494;2022-08-21T06:13:15;21.17;;;11.73;;
33184;SDS011;19550;42.872;25.494;2022-08-21T06:15:43;19.73;;;10.80;;
33184;SDS011;19550;42.872;25.494;2022-08-21T06:18:11;15.82;;;9.73;;
33184;SDS011;19550;42.872;25.494;2022-08-21T06:20:40;19.23;;;10.80;;
33184;SDS011;19550;42.872;25.494;2022-08-21T06:23:07;18.57;;;10.67;;
33184;SDS011;19550;42.872;25.494;2022-08-21T06:25:34;15.15;;;9.77;;
33184;SDS011;19550;42.872;25.494;2022-08-21T06:28:04;14.30;;;10.57;;
33184;SDS011;19550;42.872;25.494;2022-08-21T06:30:33;17.20;;;10.82;;
33184;SDS011;19550;42.872;25.494;2022-08-21T06:33:01;23.13;;;11.27;;
33184;SDS011;19550;42.872;25.494;2022-08-21T06:35:28;27.73;;;11.38;;
33184;SDS011;19550;42.872;25.494;2022-08-21T06:37:56;19.38;;;10.32;;
33184;SDS011;19550;42.872;25.494;2022-08-21T06:40:24;15.85;;;10.65;;
33184;SDS011;19550;42.872;25.494;2022-08-21T06:42:51;13.30;;;10.90;;
33184;SDS011;19550;42.872;25.494;2022-08-21T06:45:20;18.98;;;11.45;;
33184;SDS011;19550;42.872;25.494;2022-08-21T06:47:47;19.02;;;11.45;;
33184;SDS011;19550;42.872;25.494;2022-08-21T06:50:14;21.83;;;11.57;;
33184;SDS011;19550;42.872;25.494;2022-08-21T06:52:41;17.35;;;10.95;;
33184;SDS011;19550;42.872;25.494;2022-08-21T06:55:09;15.95;;;10.63;;
33184;SDS011;19550;42.872;25.494;2022-08-21T06:57:36;15.20;;;9.98;;
33184;SDS011;19550;42.872;25.494;2022-08-21T07:00:03;19.67;;;9.98;;
33184;SDS011;19550;42.872;25.494;2022-08-21T07:02:33;16.48;;;9.70;;
33184;SDS011;19550;42.872;25.494;2022-08-21T07:05:00;15.82;;;9.95;;
33184;SDS011;19550;42.872;25.494;2022-08-21T07:07:27;18.30;;;9.13;;
33184;SDS011;19550;42.872;25.494;2022-08-21T07:09:54;15.70;;;8.88;;
33184;SDS011;19550;42.872;25.494;2022-08-21T07:12:21;20.95;;;9.85;;
33184;SDS011;19550;42.872;25.494;2022-08-21T07:14:48;23.00;;;10.32;;
33184;SDS011;19550;42.872;25.494;2022-08-21T07:17:16;14.90;;;8.52;;
33184;SDS011;19550;42.872;25.494;2022-08-21T07:19:44;17.80;;;9.55;;
33184;SDS011;19550;42.872;25.494;2022-08-21T07:22:11;18.08;;;9.98;;
33184;SDS011;19550;42.872;25.494;2022-08-21T07:24:42;14.43;;;9.35;;
33184;SDS011;19550;42.872;25.494;2022-08-21T07:27:09;17.08;;;9.25;;
33184;SDS011;19550;42.872;25.494;2022-08-21T07:29:36;14.43;;;8.38;;
33184;SDS011;19550;42.872;25.494;2022-08-21T07:32:03;16.08;;;8.95;;
33184;SDS011;19550;42.872;25.494;2022-08-21T07:34:31;16.65;;;8.65;;
33184;SDS011;19550;42.872;25.494;2022-08-21T07:36:59;16.10;;;7.97;;
33184;SDS011;19550;42.872;25.494;2022-08-21T07:39:26;16.33;;;8.23;;
33184;SDS011;19550;42.872;25.494;2022-08-21T07:41:54;15.88;;;8.10;;
33184;SDS011;19550;42.872;25.494;2022-08-21T07:44:21;14.73;;;8.02;;
33184;SDS011;19550;42.872;25.494;2022-08-21T07:46:48;14.90;;;7.55;;
33184;SDS011;19550;42.872;25.494;2022-08-21T07:49:15;14.88;;;7.65;;
33184;SDS011;19550;42.872;25.494;2022-08-21T07:51:42;24.77;;;7.50;;
33184;SDS011;19550;42.872;25.494;2022-08-21T07:54:10;11.02;;;6.65;;
33184;SDS011;19550;42.872;25.494;2022-08-21T07:56:37;13.43;;;7.07;;
33184;SDS011;19550;42.872;25.494;2022-08-21T07:59:04;11.70;;;7.18;;
33184;SDS011;19550;42.872;25.494;2022-08-21T08:01:31;14.70;;;7.45;;
33184;SDS011;19550;42.872;25.494;2022-08-21T08:03:58;19.15;;;7.32;;
33184;SDS011;19550;42.872;25.494;2022-08-21T08:06:25;13.30;;;7.45;;
33184;SDS011;19550;42.872;25.494;2022-08-21T08:08:53;13.70;;;7.07;;
33184;SDS011;19550;42.872;25.494;2022-08-21T08:11:21;15.48;;;6.82;;
33184;SDS011;19550;42.872;25.494;2022-08-21T08:13:49;15.82;;;7.35;;
33184;SDS011;19550;42.872;25.494;2022-08-21T08:16:17;12.82;;;6.95;;
33184;SDS011;19550;42.872;25.494;2022-08-21T08:18:45;16.25;;;6.70;;
33184;SDS011;19550;42.872;25.494;2022-08-21T08:21:14;20.05;;;6.60;;
33184;SDS011;19550;42.872;25.494;2022-08-21T08:23:42;16.90;;;6.45;;
33184;SDS011;19550;42.872;25.494;2022-08-21T08:26:10;16.27;;;6.80;;
33184;SDS011;19550;42.872;25.494;2022-08-21T08:28:38;10.40;;;6.80;;
33184;SDS011;19550;42.872;25.494;2022-08-21T08:31:06;12.85;;;6.72;;
33184;SDS011;19550;42.872;25.494;2022-08-21T08:33:33;14.90;;;5.90;;
33184;SDS011;19550;42.872;25.494;2022-08-21T08:36:00;11.77;;;6.63;;
33184;SDS011;19550;42.872;25.494;2022-08-21T08:38:27;12.77;;;6.93;;
33184;SDS011;19550;42.872;25.494;2022-08-21T08:40:55;15.63;;;6.95;;
33184;SDS011;19550;42.872;25.494;2022-08-21T08:43:28;17.55;;;7.10;;
33184;SDS011;19550;42.872;25.494;2022-08-21T08:45:58;22.88;;;6.50;;
33184;SDS011;19550;42.872;25.494;2022-08-21T08:48:41;13.52;;;6.90;;
33184;SDS011;19550;42.872;25.494;2022-08-21T08:51:17;13.75;;;6.47;;
33184;SDS011;19550;42.872;25.494;2022-08-21T08:53:49;13.50;;;6.85;;
33184;SDS011;19550;42.872;25.494;2022-08-21T08:56:21;15.75;;;7.40;;
33184;SDS011;19550;42.872;25.494;2022-08-21T08:58:52;12.23;;;6.45;;
33184;SDS011;19550;42.872;25.494;2022-08-21T09:01:24;12.73;;;6.72;;
33184;SDS011;19550;42.872;25.494;2022-08-21T09:03:51;17.42;;;6.32;;
33184;SDS011;19550;42.872;25.494;2022-08-21T09:06:21;14.93;;;6.68;;
33184;SDS011;19550;42.872;25.494;2022-08-21T09:09:02;12.85;;;6.78;;
33184;SDS011;19550;42.872;25.494;2022-08-21T09:11:41;17.13;;;7.00;;
33184;SDS011;19550;42.872;25.494;2022-08-21T09:14:16;13.45;;;6.97;;
33184;SDS011;19550;42.872;25.494;2022-08-21T09:16:56;9.80;;;6.97;;
33184;SDS011;19550;42.872;25.494;2022-08-21T09:19:38;12.32;;;6.53;;
33184;SDS011;19550;42.872;25.494;2022-08-21T09:22:16;13.07;;;6.35;;
33184;SDS011;19550;42.872;25.494;2022-08-21T09:24:53;15.70;;;6.50;;
33184;SDS011;19550;42.872;25.494;2022-08-21T09:27:27;15.73;;;6.45;;
33184;SDS011;19550;42.872;25.494;2022-08-21T09:29:57;19.63;;;7.07;;
33184;SDS011;19550;42.872;25.494;2022-08-21T09:32:26;17.98;;;6.82;;
33184;SDS011;19550;42.872;25.494;2022-08-21T09:34:56;13.30;;;6.80;;
33184;SDS011;19550;42.872;25.494;2022-08-21T09:37:25;13.25;;;7.22;;
33184;SDS011;19550;42.872;25.494;2022-08-21T09:39:54;18.17;;;6.75;;
33184;SDS011;19550;42.872;25.494;2022-08-21T09:45:06;14.07;;;6.63;;
33184;SDS011;19550;42.872;25.494;2022-08-21T09:47:40;14.93;;;7.10;;
33184;SDS011;19550;42.872;25.494;2022-08-21T09:50:09;13.35;;;6.80;;
33184;SDS011;19550;42.872;25.494;2022-08-21T09:52:43;19.17;;;7.28;;
33184;SDS011;19550;42.872;25.494;2022-08-21T09:55:16;20.05;;;6.93;;
33184;SDS011;19550;42.872;25.494;2022-08-21T09:58:16;13.15;;;6.95;;
33184;SDS011;19550;42.872;25.494;2022-08-21T10:00:44;13.43;;;8.00;;
33184;SDS011;19550;42.872;25.494;2022-08-21T10:03:15;13.48;;;7.80;;
33184;SDS011;19550;42.872;25.494;2022-08-21T10:05:51;12.77;;;7.07;;
33184;SDS011;19550;42.872;25.494;2022-08-21T10:08:21;18.45;;;7.70;;
33184;SDS011;19550;42.872;25.494;2022-08-21T10:10:50;17.20;;;8.20;;
33184;SDS011;19550;42.872;25.494;2022-08-21T10:13:21;13.30;;;8.30;;
33184;SDS011;19550;42.872;25.494;2022-08-21T10:16:10;10.70;;;7.63;;
33184;SDS011;19550;42.872;25.494;2022-08-21T10:19:01;13.80;;;7.65;;
33184;SDS011;19550;42.872;25.494;2022-08-21T10:21:37;14.27;;;8.25;;
33184;SDS011;19550;42.872;25.494;2022-08-21T10:24:13;13.15;;;7.72;;
33184;SDS011;19550;42.872;25.494;2022-08-21T10:26:51;10.65;;;7.57;;
33184;SDS011;19550;42.872;25.494;2022-08-21T10:29:30;12.18;;;8.20;;
33184;SDS011;19550;42.872;25.494;2022-08-21T10:32:13;14.05;;;8.45;;
33184;SDS011;19550;42.872;25.494;2022-08-21T10:34:51;10.68;;;7.70;;
33184;SDS011;19550;42.872;25.494;2022-08-21T10:37:27;10.65;;;8.13;;
33184;SDS011;19550;42.872;25.494;2022-08-21T10:40:07;16.45;;;8.75;;
33184;SDS011;19550;42.872;25.494;2022-08-21T10:42:48;11.53;;;7.90;;
33184;SDS011;19550;42.872;25.494;2022-08-21T10:45:29;15.82;;;7.75;;
33184;SDS011;19550;42.872;25.494;2022-08-21T10:48:07;18.92;;;7.85;;
33184;SDS011;19550;42.872;25.494;2022-08-21T10:50:43;15.63;;;7.80;;
33184;SDS011;19550;42.872;25.494;2022-08-21T10:53:28;16.00;;;8.43;;
33184;SDS011;19550;42.872;25.494;2022-08-21T10:56:05;13.27;;;8.07;;
33184;SDS011;19550;42.872;25.494;2022-08-21T11:03:44;17.75;;;8.75;;
33184;SDS011;19550;42.872;25.494;2022-08-21T11:06:16;21.55;;;8.52;;
33184;SDS011;19550;42.872;25.494;2022-08-21T11:08:49;11.65;;;8.43;;
33184;SDS011;19550;42.872;25.494;2022-08-21T11:11:22;15.30;;;8.00;;
33184;SDS011;19550;42.872;25.494;2022-08-21T11:13:55;9.93;;;7.88;;
33184;SDS011;19550;42.872;25.494;2022-08-21T11:16:26;15.05;;;8.02;;
33184;SDS011;19550;42.872;25.494;2022-08-21T11:19:04;13.38;;;7.63;;
33184;SDS011;19550;42.872;25.494;2022-08-21T11:21:38;19.40;;;8.60;;
33184;SDS011;19550;42.872;25.494;2022-08-21T11:24:14;13.75;;;8.70;;
33184;SDS011;19550;42.872;25.494;2022-08-21T11:26:51;21.50;;;9.15;;
33184;SDS011;19550;42.872;25.494;2022-08-21T11:29:24;13.15;;;8.13;;
33184;SDS011;19550;42.872;25.494;2022-08-21T11:32:01;15.55;;;7.85;;
33184;SDS011;19550;42.872;25.494;2022-08-21T11:34:47;12.70;;;8.55;;
33184;SDS011;19550;42.872;25.494;2022-08-21T11:37:30;13.77;;;7.78;;
33184;SDS011;19550;42.872;25.494;2022-08-21T11:40:17;12.10;;;8.65;;
33184;SDS011;19550;42.872;25.494;2022-08-21T11:42:54;16.38;;;8.00;;
33184;SDS011;19550;42.872;25.494;2022-08-21T11:45:38;15.70;;;7.93;;
33184;SDS011;19550;42.872;25.494;2022-08-21T11:48:11;16.38;;;8.85;;
33184;SDS011;19550;42.872;25.494;2022-08-21T11:51:00;17.13;;;8.80;;
33184;SDS011;19550;42.872;25.494;2022-08-21T11:53:34;15.98;;;8.65;;
33184;SDS011;19550;42.872;25.494;2022-08-21T11:56:05;13.98;;;7.88;;
33184;SDS011;19550;42.872;25.494;2022-08-21T11:58:38;22.40;;;8.70;;
33184;SDS011;19550;42.872;25.494;2022-08-21T12:01:08;10.25;;;7.75;;
33184;SDS011;19550;42.872;25.494;2022-08-21T12:03:39;13.25;;;8.23;;
33184;SDS011;19550;42.872;25.494;2022-08-21T12:06:11;21.52;;;8.75;;
33184;SDS011;19550;42.872;25.494;2022-08-21T12:08:42;13.35;;;8.48;;
33184;SDS011;19550;42.872;25.494;2022-08-21T12:11:22;14.48;;;8.70;;
33184;SDS011;19550;42.872;25.494;2022-08-21T12:16:28;16.58;;;7.78;;
33184;SDS011;19550;42.872;25.494;2022-08-21T12:19:03;13.80;;;8.30;;
33184;SDS011;19550;42.872;25.494;2022-08-21T12:21:31;19.05;;;8.55;;
33184;SDS011;19550;42.872;25.494;2022-08-21T12:24:15;14.57;;;8.00;;
33184;SDS011;19550;42.872;25.494;2022-08-21T12:26:48;10.93;;;7.65;;
33184;SDS011;19550;42.872;25.494;2022-08-21T12:29:20;12.25;;;7.50;;
33184;SDS011;19550;42.872;25.494;2022-08-21T12:31:51;13.48;;;7.63;;
33184;SDS011;19550;42.872;25.494;2022-08-21T12:34:26;12.48;;;6.43;;
33184;SDS011;19550;42.872;25.494;2022-08-21T12:37:00;10.00;;;4.95;;
33184;SDS011;19550;42.872;25.494;2022-08-21T12:39:33;11.43;;;4.65;;
33184;SDS011;19550;42.872;25.494;2022-08-21T12:42:05;8.40;;;5.00;;
33184;SDS011;19550;42.872;25.494;2022-08-21T12:44:39;9.02;;;5.15;;
33184;SDS011;19550;42.872;25.494;2022-08-21T12:47:13;7.97;;;5.10;;
33184;SDS011;19550;42.872;25.494;2022-08-21T12:49:47;12.18;;;4.93;;
33184;SDS011;19550;42.872;25.494;2022-08-21T12:52:20;7.57;;;5.00;;
33184;SDS011;19550;42.872;25.494;2022-08-21T12:54:50;10.20;;;4.90;;
33184;SDS011;19550;42.872;25.494;2022-08-21T12:57:19;9.15;;;4.68;;
33184;SDS011;19550;42.872;25.494;2022-08-21T12:59:51;6.43;;;4.95;;
33184;SDS011;19550;42.872;25.494;2022-08-21T13:02:22;11.60;;;5.90;;
33184;SDS011;19550;42.872;25.494;2022-08-21T13:04:52;8.13;;;5.28;;
33184;SDS011;19550;42.872;25.494;2022-08-21T13:07:24;13.05;;;6.10;;
33184;SDS011;19550;42.872;25.494;2022-08-21T13:09:56;6.68;;;5.28;;
33184;SDS011;19550;42.872;25.494;2022-08-21T13:12:26;6.80;;;5.53;;
33184;SDS011;19550;42.872;25.494;2022-08-21T13:14:55;12.03;;;5.70;;
33184;SDS011;19550;42.872;25.494;2022-08-21T13:17:24;8.65;;;6.07;;
33184;SDS011;19550;42.872;25.494;2022-08-21T13:19:53;9.32;;;5.45;;
33184;SDS011;19550;42.872;25.494;2022-08-21T13:22:22;9.55;;;5.22;;
33184;SDS011;19550;42.872;25.494;2022-08-21T13:24:51;10.23;;;6.13;;
33184;SDS011;19550;42.872;25.494;2022-08-21T13:27:21;10.98;;;6.85;;
33184;SDS011;19550;42.872;25.494;2022-08-21T13:30:00;14.27;;;9.80;;
33184;SDS011;19550;42.872;25.494;2022-08-21T13:32:29;11.55;;;7.68;;
33184;SDS011;19550;42.872;25.494;2022-08-21T13:34:58;9.38;;;6.30;;
33184;SDS011;19550;42.872;25.494;2022-08-21T13:37:33;11.32;;;6.35;;
33184;SDS011;19550;42.872;25.494;2022-08-21T13:40:02;16.83;;;9.00;;
33184;SDS011;19550;42.872;25.494;2022-08-21T13:42:34;15.18;;;7.28;;
33184;SDS011;19550;42.872;25.494;2022-08-21T13:45:01;12.20;;;6.32;;
33184;SDS011;19550;42.872;25.494;2022-08-21T13:47:28;13.57;;;6.50;;
33184;SDS011;19550;42.872;25.494;2022-08-21T13:49:55;14.45;;;6.22;;
33184;SDS011;19550;42.872;25.494;2022-08-21T13:52:24;10.68;;;7.55;;
33184;SDS011;19550;42.872;25.494;2022-08-21T13:54:53;9.52;;;6.03;;
33184;SDS011;19550;42.872;25.494;2022-08-21T13:57:25;17.85;;;8.05;;
33184;SDS011;19550;42.872;25.494;2022-08-21T14:02:50;29.00;;;11.85;;
33184;SDS011;19550;42.872;25.494;2022-08-21T14:05:20;27.77;;;11.20;;
33184;SDS011;19550;42.872;25.494;2022-08-21T14:07:49;35.22;;;15.50;;
33184;SDS011;19550;42.872;25.494;2022-08-21T14:10:19;20.88;;;10.93;;
33184;SDS011;19550;42.872;25.494;2022-08-21T14:15:19;35.65;;;13.50;;
33184;SDS011;19550;42.872;25.494;2022-08-21T14:17:51;21.83;;;10.23;;
33184;SDS011;19550;42.872;25.494;2022-08-21T14:20:27;30.92;;;10.48;;
33184;SDS011;19550;42.872;25.494;2022-08-21T14:22:55;23.00;;;11.88;;
33184;SDS011;19550;42.872;25.494;2022-08-21T14:25:30;16.42;;;10.15;;
33184;SDS011;19550;42.872;25.494;2022-08-21T14:28:03;19.70;;;11.20;;
33184;SDS011;19550;42.872;25.494;2022-08-21T14:30:45;18.58;;;10.57;;
33184;SDS011;19550;42.872;25.494;2022-08-21T14:33:16;19.20;;;11.65;;
33184;SDS011;19550;42.872;25.494;2022-08-21T14:35:47;21.45;;;12.68;;
33184;SDS011;19550;42.872;25.494;2022-08-21T14:38:15;17.17;;;11.68;;
33184;SDS011;19550;42.872;25.494;2022-08-21T14:40:44;18.92;;;11.85;;
33184;SDS011;19550;42.872;25.494;2022-08-21T14:43:15;22.00;;;10.77;;
33184;SDS011;19550;42.872;25.494;2022-08-21T14:45:44;22.92;;;12.75;;
33184;SDS011;19550;42.872;25.494;2022-08-21T14:48:11;18.05;;;10.02;;